createdAt,value
2019-02-21T00:02:11.344Z,9.97
2019-02-21T00:04:39.335Z,10.60
2019-02-21T00:07:07.232Z,10.43
2019-02-21T00:09:35.467Z,9.97
2019-02-21T00:12:03.394Z,10.80
2019-02-21T00:14:31.413Z,11.03
2019-02-21T00:16:59.514Z,9.87
2019-02-21T00:19:27.413Z,10.23
2019-02-21T00:21:55.255Z,10.03
2019-02-21T00:24:23.220Z,10.40
2019-02-21T00:26:51.487Z,10.77
2019-02-21T00:29:19.370Z,12.20
2019-02-21T00:31:47.226Z,12.13
2019-02-21T00:34:15.227Z,12.37
2019-02-21T00:36:43.046Z,11.80
2019-02-21T00:39:11.261Z,11.23
2019-02-21T00:41:39.607Z,10.30
2019-02-21T00:44:07.527Z,10.40
2019-02-21T00:46:36.018Z,9.23
2019-02-21T00:49:03.991Z,9.20
2019-02-21T00:51:31.911Z,9.83
2019-02-21T00:54:00.211Z,9.60
2019-02-21T00:56:28.108Z,10.17
2019-02-21T00:58:56.106Z,11.50
2019-02-21T01:01:24.061Z,10.43
2019-02-21T01:03:52.081Z,12.57
2019-02-21T01:06:19.962Z,14.30
2019-02-21T01:08:48.498Z,12.13
2019-02-21T01:11:16.891Z,12.47
2019-02-21T01:13:45.137Z,10.30
2019-02-21T01:16:13.180Z,9.70
2019-02-21T01:18:41.247Z,9.87
2019-02-21T01:21:09.166Z,9.77
2019-02-21T01:23:37.026Z,9.03
2019-02-21T01:26:04.978Z,9.80
2019-02-21T01:28:33.417Z,9.90
2019-02-21T01:31:01.747Z,9.70
2019-02-21T01:33:30.006Z,9.80
2019-02-21T01:35:57.976Z,9.63
2019-02-21T01:38:25.926Z,9.00
2019-02-21T01:40:54.195Z,9.43
2019-02-21T01:43:22.179Z,8.87
2019-02-21T01:45:50.183Z,9.43
2019-02-21T01:48:18.137Z,9.43
2019-02-21T01:50:46.043Z,9.77
2019-02-21T01:53:13.952Z,9.97
2019-02-21T01:55:42.023Z,10.83
2019-02-21T01:58:10.145Z,10.20
2019-02-21T02:00:38.611Z,10.37
2019-02-21T02:03:06.534Z,10.17
2019-02-21T02:05:34.562Z,10.90
2019-02-21T02:08:02.485Z,10.43
2019-02-21T02:10:30.623Z,10.63
2019-02-21T02:12:58.605Z,10.77
2019-02-21T02:15:26.833Z,10.37
2019-02-21T02:17:54.902Z,10.93
2019-02-21T02:20:22.837Z,10.80
2019-02-21T02:22:51.227Z,10.63
2019-02-21T02:25:19.136Z,9.37
2019-02-21T02:27:47.047Z,9.90
2019-02-21T02:30:15.389Z,9.33
2019-02-21T02:32:43.302Z,9.70
2019-02-21T02:35:11.188Z,10.17
2019-02-21T02:37:39.087Z,9.83
2019-02-21T02:40:07.435Z,9.43
2019-02-21T02:42:35.732Z,9.17
2019-02-21T02:45:04.216Z,9.80
2019-02-21T02:47:32.562Z,10.00
2019-02-21T02:50:00.560Z,10.20
2019-02-21T02:52:28.718Z,10.00
2019-02-21T02:54:56.555Z,10.30
2019-02-21T02:57:24.516Z,10.23
2019-02-21T02:59:52.968Z,9.80
2019-02-21T03:02:20.877Z,10.20
2019-02-21T03:04:48.913Z,9.33
2019-02-21T03:07:18.550Z,10.13
2019-02-21T03:09:46.805Z,10.87
2019-02-21T03:12:17.158Z,10.83
2019-02-21T03:14:45.506Z,9.87
2019-02-21T03:17:13.991Z,10.90
2019-02-21T03:19:42.311Z,11.10
2019-02-21T03:22:10.518Z,10.50
2019-02-21T03:24:57.800Z,10.80
2019-02-21T03:27:26.457Z,10.30
2019-02-21T03:29:54.683Z,11.27
2019-02-21T03:32:23.026Z,11.00
2019-02-21T03:34:51.295Z,10.30
2019-02-21T03:37:20.533Z,10.27
2019-02-21T03:39:48.672Z,10.80
2019-02-21T03:42:18.535Z,11.27
2019-02-21T03:44:46.689Z,11.03
2019-02-21T03:47:15.147Z,11.73
2019-02-21T03:49:43.474Z,10.73
2019-02-21T03:52:11.803Z,12.27
2019-02-21T03:54:40.086Z,10.77
2019-02-21T03:57:08.428Z,10.97
2019-02-21T03:59:36.741Z,10.90
2019-02-21T04:02:05.829Z,10.63
2019-02-21T04:04:33.735Z,10.23
2019-02-21T04:07:01.942Z,10.67
2019-02-21T04:09:29.886Z,11.07
2019-02-21T04:11:57.780Z,10.60
2019-02-21T04:14:25.838Z,10.77
2019-02-21T04:16:53.775Z,11.07
2019-02-21T04:19:21.815Z,12.17
2019-02-21T04:21:49.743Z,10.87
2019-02-21T04:24:17.705Z,10.60
2019-02-21T04:26:45.757Z,11.63
2019-02-21T04:29:14.171Z,10.70
2019-02-21T04:31:42.062Z,10.40
2019-02-21T04:34:10.008Z,10.83
2019-02-21T04:36:37.904Z,10.37
2019-02-21T04:39:06.090Z,11.23
2019-02-21T04:41:34.420Z,11.10
2019-02-21T04:44:03.865Z,10.97
2019-02-21T04:46:32.148Z,10.47
2019-02-21T04:49:00.371Z,10.97
2019-02-21T04:51:28.219Z,10.73
2019-02-21T04:53:56.022Z,10.80
2019-02-21T04:56:24.044Z,11.13
2019-02-21T04:58:52.059Z,10.90
2019-02-21T05:01:19.924Z,11.20
2019-02-21T05:03:47.797Z,13.00
2019-02-21T05:06:15.803Z,11.13
2019-02-21T05:08:43.663Z,11.50
2019-02-21T05:11:11.702Z,11.23
2019-02-21T05:13:39.655Z,11.03
2019-02-21T05:16:07.586Z,10.83
2019-02-21T05:18:35.626Z,11.67
2019-02-21T05:21:03.534Z,11.23
2019-02-21T05:23:31.559Z,11.33
2019-02-21T05:25:59.498Z,10.80
2019-02-21T05:28:31.945Z,11.47
2019-02-21T05:31:14.451Z,11.53
2019-02-21T05:34:01.884Z,11.73
2019-02-21T05:36:49.239Z,13.17
2019-02-21T05:39:39.185Z,11.37
2019-02-21T05:42:32.867Z,11.90
2019-02-21T05:45:18.401Z,11.87
2019-02-21T05:48:05.693Z,11.27
2019-02-21T05:50:53.104Z,11.27
2019-02-21T05:53:43.218Z,11.47
2019-02-21T05:56:29.123Z,11.00
2019-02-21T05:59:19.190Z,11.47
2019-02-21T06:02:21.092Z,11.77
2019-02-21T06:05:23.442Z,11.50
2019-02-21T06:08:19.566Z,12.03
2019-02-21T06:11:05.437Z,11.37
2019-02-21T06:13:58.530Z,11.57
2019-02-21T06:16:41.463Z,11.33
2019-02-21T06:19:27.431Z,11.00
2019-02-21T06:22:20.947Z,11.97
2019-02-21T06:24:54.569Z,12.20
2019-02-21T06:27:26.681Z,11.90
2019-02-21T06:30:07.838Z,11.83
2019-02-21T06:32:35.775Z,11.87
2019-02-21T06:35:04.147Z,11.43
2019-02-21T06:37:32.116Z,12.67
2019-02-21T06:40:00.141Z,14.23
2019-02-21T06:42:28.163Z,28.77
2019-02-21T06:44:56.082Z,21.10
2019-02-21T06:47:24.329Z,15.97
2019-02-21T06:49:52.355Z,15.63
2019-02-21T06:52:20.221Z,15.37
2019-02-21T06:54:48.145Z,15.77
2019-02-21T06:57:17.254Z,17.27
2019-02-21T06:59:45.460Z,15.13
2019-02-21T07:02:13.776Z,15.50
2019-02-21T07:04:41.675Z,14.70
2019-02-21T07:07:10.044Z,13.43
2019-02-21T07:09:37.974Z,16.53
2019-02-21T07:12:05.851Z,19.03
2019-02-21T07:14:46.671Z,15.47
2019-02-21T07:17:14.642Z,15.00
2019-02-21T07:19:42.535Z,15.70
2019-02-21T07:22:17.475Z,15.47
2019-02-21T07:24:41.147Z,17.40
2019-02-21T07:27:09.198Z,17.47
2019-02-21T07:29:38.801Z,17.63
2019-02-21T07:32:06.977Z,18.93
2019-02-21T07:34:34.875Z,19.30
2019-02-21T07:37:02.803Z,21.30
2019-02-21T07:39:36.168Z,19.97
2019-02-21T07:42:00.475Z,19.83
2019-02-21T07:44:28.449Z,21.57
2019-02-21T07:46:56.574Z,19.67
2019-02-21T07:49:25.714Z,20.40
2019-02-21T07:51:53.722Z,19.73
2019-02-21T07:54:21.986Z,21.57
2019-02-21T07:56:49.971Z,22.80
2019-02-21T07:59:17.804Z,23.47
2019-02-21T08:01:45.702Z,21.70
2019-02-21T08:04:13.591Z,23.03
2019-02-21T08:06:41.848Z,22.93
2019-02-21T08:09:10.118Z,24.10
2019-02-21T08:11:39.793Z,22.87
2019-02-21T08:14:08.004Z,24.90
2019-02-21T08:16:36.072Z,24.63
2019-02-21T08:19:04.192Z,24.10
2019-02-21T08:21:32.527Z,25.13
2019-02-21T08:24:00.639Z,24.70
2019-02-21T08:26:28.513Z,25.40
2019-02-21T08:28:56.528Z,25.00
2019-02-21T08:31:24.483Z,25.70
2019-02-21T08:33:59.052Z,25.23
2019-02-21T08:36:26.904Z,25.90
2019-02-21T08:38:54.774Z,27.73
2019-02-21T08:41:25.580Z,26.13
2019-02-21T08:43:52.413Z,27.33
2019-02-21T08:46:20.253Z,26.50
2019-02-21T08:48:48.243Z,27.50
2019-02-21T08:51:18.312Z,27.13
2019-02-21T08:53:45.863Z,28.10
2019-02-21T08:56:13.771Z,28.67
2019-02-21T08:58:41.699Z,26.33
2019-02-21T09:01:09.631Z,26.53
2019-02-21T09:03:37.502Z,27.17
2019-02-21T09:06:05.440Z,29.57
2019-02-21T09:08:36.796Z,28.67
2019-02-21T09:11:04.059Z,29.23
2019-02-21T09:13:32.095Z,32.27
2019-02-21T09:16:00.028Z,31.20
2019-02-21T09:18:27.943Z,32.20
2019-02-21T09:20:55.910Z,31.20
2019-02-21T09:23:23.887Z,32.73
2019-02-21T09:25:51.754Z,31.50
2019-02-21T09:28:19.713Z,32.93
2019-02-21T09:30:47.753Z,32.43
2019-02-21T09:33:17.702Z,29.30
2019-02-21T09:35:45.271Z,31.10
2019-02-21T09:38:13.133Z,30.00
2019-02-21T09:40:42.723Z,28.80
2019-02-21T09:43:10.851Z,27.63
2019-02-21T09:45:38.700Z,29.30
2019-02-21T09:48:06.635Z,29.60
2019-02-21T09:50:35.048Z,27.20
2019-02-21T09:53:03.042Z,26.30
2019-02-21T09:55:31.081Z,26.20
2019-02-21T09:57:59.123Z,27.37
2019-02-21T10:00:27.103Z,26.47
2019-02-21T10:02:56.743Z,27.67
2019-02-21T10:05:24.630Z,26.63
2019-02-21T10:07:52.581Z,25.23
2019-02-21T10:10:20.564Z,27.23
2019-02-21T10:12:48.563Z,26.23
2019-02-21T10:15:24.699Z,25.57
2019-02-21T10:17:52.663Z,25.00
2019-02-21T10:20:20.719Z,30.47
2019-02-21T10:22:48.650Z,31.07
2019-02-21T10:25:18.562Z,33.10
2019-02-21T10:27:46.469Z,35.73
2019-02-21T10:30:15.670Z,34.60
2019-02-21T10:32:43.558Z,30.30
2019-02-21T10:35:11.650Z,28.03
2019-02-21T10:37:39.947Z,27.47
2019-02-21T10:40:08.924Z,27.20
2019-02-21T10:42:36.960Z,31.33
2019-02-21T10:45:06.724Z,26.20
2019-02-21T10:47:34.910Z,27.30
2019-02-21T10:50:03.439Z,24.83
2019-02-21T10:52:31.335Z,24.30
2019-02-21T10:54:59.175Z,24.60
2019-02-21T10:57:27.023Z,21.90
2019-02-21T10:59:55.011Z,26.13
2019-02-21T11:02:23.240Z,26.43
2019-02-21T11:04:54.733Z,22.00
2019-02-21T11:07:20.939Z,26.73
2019-02-21T11:09:48.942Z,25.03
2019-02-21T11:12:18.322Z,24.73
2019-02-21T11:15:23.013Z,26.30
2019-02-21T11:17:49.948Z,25.23
2019-02-21T11:20:18.103Z,22.80
2019-02-21T11:22:46.006Z,20.63
2019-02-21T11:25:13.886Z,24.67
2019-02-21T11:27:42.024Z,24.87
2019-02-21T11:30:12.838Z,23.93
2019-02-21T11:32:40.893Z,21.10
2019-02-21T11:35:08.972Z,19.33
2019-02-21T11:37:43.248Z,20.07
2019-02-21T11:40:08.134Z,18.80
2019-02-21T11:42:36.186Z,20.00
2019-02-21T11:45:04.845Z,18.40
2019-02-21T11:47:32.787Z,16.90
2019-02-21T11:50:01.187Z,16.27
2019-02-21T11:52:29.110Z,16.57
2019-02-21T11:54:56.956Z,15.70
2019-02-21T11:57:24.925Z,17.93
2019-02-21T11:59:52.875Z,18.70
2019-02-21T12:02:20.813Z,17.27
2019-02-21T12:04:48.804Z,16.73
2019-02-21T12:07:16.818Z,17.00
2019-02-21T12:09:44.691Z,16.17
2019-02-21T12:12:12.555Z,13.87
2019-02-21T12:15:02.858Z,16.20
2019-02-21T12:17:30.955Z,14.70
2019-02-21T12:19:58.893Z,13.70
2019-02-21T12:22:26.847Z,12.33
2019-02-21T12:24:54.697Z,15.80
2019-02-21T12:27:22.595Z,13.30
2019-02-21T12:29:50.547Z,13.47
2019-02-21T12:32:19.607Z,13.33
2019-02-21T12:34:47.809Z,13.87
2019-02-21T12:37:15.722Z,14.50
2019-02-21T12:39:44.020Z,12.43
2019-02-21T12:42:12.279Z,14.83
2019-02-21T12:44:40.195Z,16.00
2019-02-21T12:47:08.235Z,13.93
2019-02-21T12:49:36.123Z,18.50
2019-02-21T12:52:04.472Z,16.57
2019-02-21T12:54:32.406Z,19.33
2019-02-21T12:57:00.447Z,17.07
2019-02-21T12:59:28.351Z,15.97
2019-02-21T13:01:56.322Z,24.47
2019-02-21T13:04:24.239Z,20.90
2019-02-21T13:06:52.143Z,22.20
2019-02-21T13:09:20.087Z,20.87
2019-02-21T13:11:48.423Z,18.33
2019-02-21T13:14:16.374Z,18.07
2019-02-21T13:16:44.327Z,18.00
2019-02-21T13:19:12.263Z,18.60
2019-02-21T13:21:40.227Z,24.00
2019-02-21T13:24:08.133Z,19.80
2019-02-21T13:26:36.267Z,19.30
2019-02-21T13:29:04.416Z,20.23
2019-02-21T13:31:32.427Z,15.80
2019-02-21T13:34:00.301Z,17.03
2019-02-21T13:36:28.276Z,17.00
2019-02-21T13:38:56.190Z,15.07
2019-02-21T13:41:24.091Z,14.17
2019-02-21T13:43:52.031Z,14.73
2019-02-21T13:46:20.283Z,14.50
2019-02-21T13:48:48.303Z,17.97
2019-02-21T13:51:16.328Z,14.90
2019-02-21T13:53:44.362Z,14.50
2019-02-21T13:56:12.372Z,14.77
2019-02-21T13:58:40.257Z,14.30
2019-02-21T14:01:08.114Z,17.87
2019-02-21T14:03:36.019Z,13.23
2019-02-21T14:06:04.159Z,11.43
2019-02-21T14:08:32.067Z,13.40
2019-02-21T14:10:59.974Z,17.17
2019-02-21T14:13:28.212Z,12.30
2019-02-21T14:16:11.198Z,12.30
2019-02-21T14:18:39.088Z,15.20
2019-02-21T14:21:07.018Z,12.87
2019-02-21T14:23:35.457Z,11.97
2019-02-21T14:26:03.844Z,13.10
2019-02-21T14:28:37.296Z,11.47
2019-02-21T14:31:07.304Z,11.57
2019-02-21T14:33:34.322Z,11.63
2019-02-21T14:36:02.351Z,13.27
2019-02-21T14:38:30.271Z,11.90
2019-02-21T14:40:58.219Z,12.47
2019-02-21T14:43:26.264Z,11.80
2019-02-21T14:45:54.187Z,10.97
2019-02-21T14:48:22.075Z,11.77
2019-02-21T14:50:50.006Z,15.07
2019-02-21T14:53:18.011Z,14.13
2019-02-21T14:55:45.840Z,12.10
2019-02-21T14:58:13.755Z,11.23
2019-02-21T15:00:41.767Z,13.50
2019-02-21T15:03:21.053Z,11.57
2019-02-21T15:05:39.638Z,10.73
2019-02-21T15:08:07.601Z,9.47
2019-02-21T15:10:35.660Z,11.00
2019-02-21T15:13:03.518Z,9.40
2019-02-21T15:16:15.879Z,145.77
2019-02-21T15:19:01.382Z,34.10
2019-02-21T15:21:29.826Z,9.30
2019-02-21T15:23:57.788Z,7.93
2019-02-21T15:26:25.809Z,9.67
2019-02-21T15:28:53.760Z,8.53
2019-02-21T15:31:21.967Z,8.67
2019-02-21T15:33:49.858Z,8.57
2019-02-21T15:36:17.795Z,9.37
2019-02-21T15:38:45.702Z,8.43
2019-02-21T15:41:13.955Z,7.90
2019-02-21T15:43:41.843Z,11.13
2019-02-21T15:46:09.931Z,13.33
2019-02-21T15:48:38.421Z,21.83
2019-02-21T15:51:06.353Z,10.37
2019-02-21T15:53:34.242Z,8.40
2019-02-21T15:56:02.227Z,9.07
2019-02-21T15:58:30.392Z,8.70
2019-02-21T16:00:58.283Z,9.80
2019-02-21T16:03:26.134Z,10.90
2019-02-21T16:05:54.088Z,10.77
2019-02-21T16:08:22.352Z,9.80
2019-02-21T16:10:50.355Z,20.03
2019-02-21T16:13:18.289Z,12.90
2019-02-21T16:16:21.949Z,11.90
2019-02-21T16:18:48.708Z,20.97
2019-02-21T16:21:16.754Z,15.27
2019-02-21T16:23:44.685Z,15.43
2019-02-21T16:26:12.656Z,14.83
2019-02-21T16:28:40.641Z,13.13
2019-02-21T16:31:08.631Z,11.90
2019-02-21T16:33:36.701Z,11.60
2019-02-21T16:36:04.643Z,10.47
2019-02-21T16:38:32.674Z,13.30
2019-02-21T16:41:00.587Z,12.80
2019-02-21T16:43:28.435Z,13.23
2019-02-21T16:46:07.170Z,11.10
2019-02-21T16:48:26.480Z,11.20
2019-02-21T16:50:54.522Z,16.00
2019-02-21T16:53:22.463Z,20.60
2019-02-21T16:55:50.351Z,24.87
2019-02-21T16:58:18.560Z,24.17
2019-02-21T17:00:52.734Z,24.30
2019-02-21T17:03:16.145Z,24.40
2019-02-21T17:05:44.055Z,27.03
2019-02-21T17:08:12.015Z,33.13
2019-02-21T17:10:39.917Z,32.67
2019-02-21T17:13:07.951Z,33.83
2019-02-21T17:16:11.194Z,33.47
2019-02-21T17:18:38.486Z,27.93
2019-02-21T17:21:06.572Z,23.40
2019-02-21T17:23:34.871Z,26.73
2019-02-21T17:26:02.832Z,27.93
2019-02-21T17:28:34.176Z,32.83
2019-02-21T17:31:02.210Z,32.10
2019-02-21T17:33:30.174Z,30.07
2019-02-21T17:35:58.193Z,30.27
2019-02-21T17:38:26.089Z,32.47
2019-02-21T17:40:54.195Z,34.70
2019-02-21T17:43:22.178Z,30.80
2019-02-21T17:45:50.556Z,28.00
2019-02-21T17:48:20.546Z,24.77
2019-02-21T17:50:48.991Z,22.60
2019-02-21T17:53:17.770Z,20.43
2019-02-21T17:55:46.551Z,20.77
2019-02-21T17:58:17.205Z,19.53
2019-02-21T18:00:45.778Z,19.80
2019-02-21T18:03:14.654Z,19.23
2019-02-21T18:05:43.470Z,19.77
2019-02-21T18:08:12.232Z,20.87
2019-02-21T18:10:40.935Z,22.07
2019-02-21T18:13:09.690Z,21.93
2019-02-21T18:16:15.301Z,23.20
2019-02-21T18:18:42.883Z,23.23
2019-02-21T18:21:11.811Z,29.23
2019-02-21T18:23:40.682Z,30.60
2019-02-21T18:26:20.630Z,29.37
2019-02-21T18:28:49.547Z,36.27
2019-02-21T18:31:18.413Z,28.67
2019-02-21T18:33:47.267Z,28.90
2019-02-21T18:36:16.089Z,23.83
2019-02-21T18:38:45.086Z,33.93
2019-02-21T18:41:14.092Z,38.23
2019-02-21T18:43:42.861Z,47.37
2019-02-21T18:46:11.679Z,48.87
2019-02-21T18:48:40.394Z,44.23
2019-02-21T18:51:09.117Z,42.03
2019-02-21T18:53:37.974Z,36.30
2019-02-21T18:56:07.028Z,26.40
2019-02-21T18:58:35.815Z,23.17
2019-02-21T19:01:04.747Z,28.57
2019-02-21T19:03:35.825Z,26.23
2019-02-21T19:06:04.535Z,27.80
2019-02-21T19:08:33.355Z,28.17
2019-02-21T19:11:03.127Z,28.87
2019-02-21T19:13:47.446Z,28.73
2019-02-21T19:16:16.343Z,26.53
2019-02-21T19:18:45.210Z,25.73
2019-02-21T19:21:14.227Z,25.97
2019-02-21T19:23:43.083Z,26.27
2019-02-21T19:26:11.970Z,23.77
2019-02-21T19:28:40.923Z,24.60
2019-02-21T19:31:13.045Z,32.60
2019-02-21T19:33:42.930Z,42.13
2019-02-21T19:36:11.770Z,65.57
2019-02-21T19:38:40.676Z,96.27
2019-02-21T19:41:10.010Z,93.97
2019-02-21T19:44:07.966Z,63.17
2019-02-21T19:46:26.259Z,42.13
2019-02-21T19:48:54.989Z,36.17
2019-02-21T19:51:23.785Z,33.80
2019-02-21T19:53:52.600Z,32.37
2019-02-21T19:56:21.389Z,32.33
2019-02-21T19:58:50.829Z,29.90
2019-02-21T20:01:19.618Z,29.30
2019-02-21T20:03:49.707Z,28.20
2019-02-21T20:06:18.703Z,25.30
2019-02-21T20:08:47.530Z,24.03
2019-02-21T20:11:16.435Z,25.97
2019-02-21T20:14:10.404Z,22.33
2019-02-21T20:16:39.191Z,22.70
2019-02-21T20:19:07.956Z,21.97
2019-02-21T20:21:36.765Z,24.17
2019-02-21T20:24:05.667Z,22.87
2019-02-21T20:26:34.467Z,23.20
2019-02-21T20:29:04.376Z,26.70
2019-02-21T20:31:33.119Z,25.73
2019-02-21T20:34:01.862Z,22.83
2019-02-21T20:36:30.836Z,24.13
2019-02-21T20:39:01.279Z,26.70
2019-02-21T20:41:30.086Z,27.73
2019-02-21T20:43:58.882Z,33.00
2019-02-21T20:46:29.388Z,28.30
2019-02-21T20:48:58.379Z,28.53
2019-02-21T20:51:27.155Z,28.77
2019-02-21T20:53:59.130Z,26.40
2019-02-21T20:56:27.827Z,26.30
2019-02-21T20:58:56.650Z,25.67
2019-02-21T21:01:26.820Z,26.13
2019-02-21T21:03:55.630Z,29.40
2019-02-21T21:06:24.426Z,33.90
2019-02-21T21:08:53.407Z,27.80
2019-02-21T21:11:22.089Z,25.27
2019-02-21T21:14:07.666Z,23.07
2019-02-21T21:16:36.446Z,24.87
2019-02-21T21:19:05.278Z,31.10
2019-02-21T21:21:34.015Z,37.77
2019-02-21T21:24:03.092Z,33.73
2019-02-21T21:26:57.968Z,35.47
2019-02-21T21:29:26.723Z,32.60
2019-02-21T21:31:55.546Z,24.93
2019-02-21T21:34:24.230Z,25.83
2019-02-21T21:36:52.693Z,25.63
2019-02-21T21:39:21.240Z,22.03
2019-02-21T21:41:49.450Z,20.90
2019-02-21T21:44:17.818Z,24.77
2019-02-21T21:46:46.078Z,23.10
2019-02-21T21:49:13.987Z,24.83
2019-02-21T21:51:41.958Z,20.03
2019-02-21T21:54:09.851Z,19.00
2019-02-21T21:56:37.830Z,20.23
2019-02-21T21:59:05.737Z,22.23
2019-02-21T22:01:33.714Z,24.27
2019-02-21T22:04:01.822Z,22.43
2019-02-21T22:06:29.749Z,21.30
2019-02-21T22:09:04.500Z,21.43
2019-02-21T22:11:27.486Z,20.93
2019-02-21T22:14:16.959Z,20.10
2019-02-21T22:16:44.878Z,24.50
2019-02-21T22:19:12.848Z,25.90
2019-02-21T22:21:40.803Z,23.80
2019-02-21T22:24:08.782Z,20.90
2019-02-21T22:26:36.727Z,46.03
2019-02-21T22:29:04.768Z,58.97
2019-02-21T22:31:33.371Z,36.83
2019-02-21T22:34:01.374Z,29.30
2019-02-21T22:36:29.322Z,26.43
2019-02-21T22:38:57.170Z,25.60
2019-02-21T22:41:25.090Z,24.40
2019-02-21T22:43:53.107Z,23.37
2019-02-21T22:46:21.141Z,22.43
2019-02-21T22:48:49.367Z,22.97
2019-02-21T22:51:17.206Z,22.07
2019-02-21T22:53:45.220Z,23.10
2019-02-21T22:56:13.069Z,23.00
2019-02-21T22:58:44.918Z,22.13
2019-02-21T23:01:30.553Z,19.60
2019-02-21T23:04:25.688Z,22.97
2019-02-21T23:07:26.726Z,24.97
2019-02-21T23:09:54.742Z,25.10
2019-02-21T23:12:22.637Z,25.10
2019-02-21T23:14:50.463Z,26.03
2019-02-21T23:17:19.870Z,25.80
2019-02-21T23:19:47.770Z,26.80
2019-02-21T23:22:16.106Z,25.47
2019-02-21T23:24:44.222Z,24.20
2019-02-21T23:27:12.355Z,21.27
2019-02-21T23:29:40.972Z,21.50
2019-02-21T23:32:09.391Z,17.73
2019-02-21T23:34:39.551Z,16.90
2019-02-21T23:37:08.909Z,17.50
2019-02-21T23:39:38.554Z,17.77
2019-02-21T23:42:07.358Z,19.37
2019-02-21T23:44:35.294Z,21.13
2019-02-21T23:47:03.416Z,21.80
2019-02-21T23:49:31.599Z,20.77
2019-02-21T23:52:00.010Z,24.17
2019-02-21T23:54:27.917Z,24.13
2019-02-21T23:56:55.863Z,23.07
2019-02-21T23:59:23.738Z,24.13
